sensor_id;sensor_type;location;lat;lon;timestamp;P1;durP1;ratioP1;P2;durP2;ratioP2
57057;SDS011;55017;52.848;6.748;2022-10-17T00:01:18;111.13;;;107.03;;
57057;SDS011;55017;52.848;6.748;2022-10-17T00:03:44;110.88;;;106.75;;
57057;SDS011;55017;52.848;6.748;2022-10-17T00:06:11;112.80;;;108.40;;
57057;SDS011;55017;52.848;6.748;2022-10-17T00:08:38;115.72;;;111.28;;
57057;SDS011;55017;52.848;6.748;2022-10-17T00:11:07;110.55;;;106.65;;
57057;SDS011;55017;52.848;6.748;2022-10-17T00:13:37;111.70;;;107.55;;
57057;SDS011;55017;52.848;6.748;2022-10-17T00:16:03;109.53;;;105.22;;
57057;SDS011;55017;52.848;6.748;2022-10-17T00:18:29;109.53;;;105.53;;
57057;SDS011;55017;52.848;6.748;2022-10-17T00:20:55;111.22;;;106.93;;
57057;SDS011;55017;52.848;6.748;2022-10-17T00:23:20;113.60;;;109.38;;
57057;SDS011;55017;52.848;6.748;2022-10-17T00:25:46;112.05;;;107.65;;
57057;SDS011;55017;52.848;6.748;2022-10-17T00:28:12;110.53;;;106.45;;
57057;SDS011;55017;52.848;6.748;2022-10-17T00:30:39;111.63;;;107.43;;
57057;SDS011;55017;52.848;6.748;2022-10-17T00:33:05;107.93;;;103.95;;
57057;SDS011;55017;52.848;6.748;2022-10-17T00:35:31;111.80;;;107.45;;
57057;SDS011;55017;52.848;6.748;2022-10-17T00:37:57;109.78;;;105.72;;
57057;SDS011;55017;52.848;6.748;2022-10-17T00:40:23;109.40;;;105.30;;
57057;SDS011;55017;52.848;6.748;2022-10-17T00:42:48;109.70;;;105.40;;
57057;SDS011;55017;52.848;6.748;2022-10-17T00:45:24;111.32;;;106.93;;
57057;SDS011;55017;52.848;6.748;2022-10-17T00:47:59;114.13;;;110.07;;
57057;SDS011;55017;52.848;6.748;2022-10-17T00:50:29;110.32;;;106.20;;
57057;SDS011;55017;52.848;6.748;2022-10-17T00:52:56;109.00;;;104.97;;
57057;SDS011;55017;52.848;6.748;2022-10-17T00:55:26;113.82;;;109.68;;
57057;SDS011;55017;52.848;6.748;2022-10-17T00:57:55;112.18;;;107.82;;
57057;SDS011;55017;52.848;6.748;2022-10-17T01:00:23;109.65;;;105.55;;
57057;SDS011;55017;52.848;6.748;2022-10-17T01:02:48;110.43;;;106.07;;
57057;SDS011;55017;52.848;6.748;2022-10-17T01:05:14;110.85;;;106.75;;
57057;SDS011;55017;52.848;6.748;2022-10-17T01:07:43;110.78;;;106.68;;
57057;SDS011;55017;52.848;6.748;2022-10-17T01:10:10;111.07;;;107.07;;
57057;SDS011;55017;52.848;6.748;2022-10-17T01:12:56;110.00;;;105.90;;
57057;SDS011;55017;52.848;6.748;2022-10-17T01:18:48;113.32;;;108.82;;
57057;SDS011;55017;52.848;6.748;2022-10-17T01:27:14;112.35;;;108.25;;
57057;SDS011;55017;52.848;6.748;2022-10-17T01:30:15;112.28;;;108.07;;
57057;SDS011;55017;52.848;6.748;2022-10-17T01:33:07;112.32;;;108.00;;
57057;SDS011;55017;52.848;6.748;2022-10-17T01:36:23;113.15;;;108.88;;
57057;SDS011;55017;52.848;6.748;2022-10-17T01:38:43;112.07;;;107.75;;
57057;SDS011;55017;52.848;6.748;2022-10-17T01:44:11;116.70;;;112.28;;
57057;SDS011;55017;52.848;6.748;2022-10-17T01:46:45;114.85;;;110.65;;
57057;SDS011;55017;52.848;6.748;2022-10-17T01:49:15;114.65;;;110.43;;
57057;SDS011;55017;52.848;6.748;2022-10-17T01:51:45;112.78;;;108.68;;
57057;SDS011;55017;52.848;6.748;2022-10-17T01:54:20;110.32;;;106.28;;
57057;SDS011;55017;52.848;6.748;2022-10-17T01:56:58;109.93;;;105.68;;
57057;SDS011;55017;52.848;6.748;2022-10-17T01:59:29;109.28;;;105.13;;
57057;SDS011;55017;52.848;6.748;2022-10-17T02:02:00;113.07;;;109.03;;
57057;SDS011;55017;52.848;6.748;2022-10-17T02:04:27;111.20;;;107.05;;
57057;SDS011;55017;52.848;6.748;2022-10-17T02:06:53;113.80;;;109.53;;
57057;SDS011;55017;52.848;6.748;2022-10-17T02:11:49;116.03;;;111.85;;
57057;SDS011;55017;52.848;6.748;2022-10-17T02:19:54;115.75;;;111.20;;
57057;SDS011;55017;52.848;6.748;2022-10-17T02:28:18;113.05;;;108.75;;
57057;SDS011;55017;52.848;6.748;2022-10-17T02:30:57;117.20;;;112.60;;
57057;SDS011;55017;52.848;6.748;2022-10-17T02:33:28;113.28;;;108.85;;
57057;SDS011;55017;52.848;6.748;2022-10-17T02:36:01;114.18;;;109.97;;
57057;SDS011;55017;52.848;6.748;2022-10-17T02:38:31;116.07;;;111.80;;
57057;SDS011;55017;52.848;6.748;2022-10-17T02:40:59;118.10;;;113.75;;
57057;SDS011;55017;52.848;6.748;2022-10-17T02:43:25;115.03;;;110.93;;
57057;SDS011;55017;52.848;6.748;2022-10-17T02:45:52;113.13;;;109.07;;
57057;SDS011;55017;52.848;6.748;2022-10-17T02:48:26;116.35;;;112.15;;
57057;SDS011;55017;52.848;6.748;2022-10-17T02:51:23;119.03;;;114.53;;
57057;SDS011;55017;52.848;6.748;2022-10-17T02:54:10;114.68;;;110.57;;
57057;SDS011;55017;52.848;6.748;2022-10-17T02:56:39;116.75;;;112.40;;
57057;SDS011;55017;52.848;6.748;2022-10-17T02:59:08;116.15;;;111.72;;
57057;SDS011;55017;52.848;6.748;2022-10-17T03:01:38;114.32;;;109.68;;
57057;SDS011;55017;52.848;6.748;2022-10-17T03:04:07;113.32;;;109.07;;
57057;SDS011;55017;52.848;6.748;2022-10-17T03:06:36;114.72;;;110.60;;
57057;SDS011;55017;52.848;6.748;2022-10-17T03:09:02;115.57;;;111.28;;
57057;SDS011;55017;52.848;6.748;2022-10-17T03:11:28;117.15;;;112.78;;
57057;SDS011;55017;52.848;6.748;2022-10-17T03:13:53;113.95;;;109.75;;
57057;SDS011;55017;52.848;6.748;2022-10-17T03:16:19;120.40;;;115.90;;
57057;SDS011;55017;52.848;6.748;2022-10-17T03:18:45;117.57;;;113.28;;
57057;SDS011;55017;52.848;6.748;2022-10-17T03:21:10;117.47;;;113.07;;
57057;SDS011;55017;52.848;6.748;2022-10-17T03:23:36;114.38;;;110.05;;
57057;SDS011;55017;52.848;6.748;2022-10-17T03:26:02;116.50;;;112.18;;
57057;SDS011;55017;52.848;6.748;2022-10-17T03:28:31;116.53;;;112.13;;
57057;SDS011;55017;52.848;6.748;2022-10-17T03:30:57;116.93;;;112.53;;
57057;SDS011;55017;52.848;6.748;2022-10-17T03:33:23;119.13;;;114.30;;
57057;SDS011;55017;52.848;6.748;2022-10-17T03:35:48;118.45;;;114.05;;
57057;SDS011;55017;52.848;6.748;2022-10-17T03:38:14;119.82;;;115.13;;
57057;SDS011;55017;52.848;6.748;2022-10-17T03:40:39;118.60;;;113.90;;
57057;SDS011;55017;52.848;6.748;2022-10-17T03:43:05;117.07;;;112.50;;
57057;SDS011;55017;52.848;6.748;2022-10-17T03:45:31;117.22;;;112.88;;
57057;SDS011;55017;52.848;6.748;2022-10-17T03:47:59;119.30;;;114.53;;
57057;SDS011;55017;52.848;6.748;2022-10-17T03:50:25;118.00;;;113.50;;
57057;SDS011;55017;52.848;6.748;2022-10-17T03:52:50;116.57;;;112.18;;
57057;SDS011;55017;52.848;6.748;2022-10-17T03:55:16;120.53;;;115.72;;
57057;SDS011;55017;52.848;6.748;2022-10-17T03:57:41;117.65;;;113.25;;
57057;SDS011;55017;52.848;6.748;2022-10-17T04:00:07;124.22;;;119.28;;
57057;SDS011;55017;52.848;6.748;2022-10-17T04:02:33;122.85;;;118.15;;
57057;SDS011;55017;52.848;6.748;2022-10-17T04:04:59;119.72;;;115.15;;
57057;SDS011;55017;52.848;6.748;2022-10-17T04:07:25;119.40;;;114.50;;
57057;SDS011;55017;52.848;6.748;2022-10-17T04:09:51;121.35;;;116.65;;
57057;SDS011;55017;52.848;6.748;2022-10-17T04:12:16;123.63;;;118.65;;
57057;SDS011;55017;52.848;6.748;2022-10-17T04:14:42;123.88;;;118.88;;
57057;SDS011;55017;52.848;6.748;2022-10-17T04:17:08;119.60;;;114.95;;
57057;SDS011;55017;52.848;6.748;2022-10-17T04:19:34;121.57;;;116.78;;
57057;SDS011;55017;52.848;6.748;2022-10-17T04:21:59;124.00;;;119.13;;
57057;SDS011;55017;52.848;6.748;2022-10-17T04:24:27;122.65;;;117.95;;
57057;SDS011;55017;52.848;6.748;2022-10-17T04:26:52;120.70;;;116.13;;
57057;SDS011;55017;52.848;6.748;2022-10-17T04:29:19;120.97;;;116.10;;
57057;SDS011;55017;52.848;6.748;2022-10-17T04:31:45;120.20;;;115.50;;
57057;SDS011;55017;52.848;6.748;2022-10-17T04:34:10;121.07;;;116.28;;
57057;SDS011;55017;52.848;6.748;2022-10-17T04:36:38;122.13;;;117.22;;
57057;SDS011;55017;52.848;6.748;2022-10-17T04:39:04;119.80;;;115.00;;
57057;SDS011;55017;52.848;6.748;2022-10-17T04:41:30;125.82;;;120.68;;
57057;SDS011;55017;52.848;6.748;2022-10-17T04:43:56;120.28;;;115.43;;
57057;SDS011;55017;52.848;6.748;2022-10-17T04:46:21;121.88;;;117.18;;
57057;SDS011;55017;52.848;6.748;2022-10-17T04:48:47;123.50;;;118.60;;
57057;SDS011;55017;52.848;6.748;2022-10-17T04:51:14;123.07;;;118.18;;
57057;SDS011;55017;52.848;6.748;2022-10-17T04:53:42;123.32;;;118.22;;
57057;SDS011;55017;52.848;6.748;2022-10-17T04:56:14;121.05;;;116.18;;
57057;SDS011;55017;52.848;6.748;2022-10-17T04:58:41;124.00;;;118.95;;
57057;SDS011;55017;52.848;6.748;2022-10-17T05:01:09;120.30;;;115.50;;
57057;SDS011;55017;52.848;6.748;2022-10-17T05:03:37;122.10;;;117.20;;
57057;SDS011;55017;52.848;6.748;2022-10-17T05:06:06;121.90;;;116.97;;
57057;SDS011;55017;52.848;6.748;2022-10-17T05:08:33;123.43;;;118.47;;
57057;SDS011;55017;52.848;6.748;2022-10-17T05:10:59;122.55;;;117.82;;
57057;SDS011;55017;52.848;6.748;2022-10-17T05:13:26;125.32;;;120.20;;
57057;SDS011;55017;52.848;6.748;2022-10-17T05:15:51;121.65;;;116.53;;
57057;SDS011;55017;52.848;6.748;2022-10-17T05:18:17;121.65;;;116.88;;
57057;SDS011;55017;52.848;6.748;2022-10-17T05:20:43;121.32;;;116.32;;
57057;SDS011;55017;52.848;6.748;2022-10-17T05:23:08;124.53;;;119.60;;
57057;SDS011;55017;52.848;6.748;2022-10-17T05:28:02;126.35;;;121.15;;
57057;SDS011;55017;52.848;6.748;2022-10-17T05:30:28;121.50;;;116.35;;
57057;SDS011;55017;52.848;6.748;2022-10-17T05:32:54;122.80;;;117.93;;
57057;SDS011;55017;52.848;6.748;2022-10-17T05:35:20;123.93;;;118.97;;
57057;SDS011;55017;52.848;6.748;2022-10-17T05:37:46;124.78;;;119.82;;
57057;SDS011;55017;52.848;6.748;2022-10-17T05:40:11;123.63;;;118.63;;
57057;SDS011;55017;52.848;6.748;2022-10-17T05:42:37;124.53;;;119.43;;
57057;SDS011;55017;52.848;6.748;2022-10-17T05:45:03;125.22;;;119.93;;
57057;SDS011;55017;52.848;6.748;2022-10-17T05:47:29;121.32;;;116.35;;
57057;SDS011;55017;52.848;6.748;2022-10-17T05:49:54;124.32;;;119.22;;
57057;SDS011;55017;52.848;6.748;2022-10-17T05:52:20;122.70;;;117.75;;
57057;SDS011;55017;52.848;6.748;2022-10-17T05:54:46;121.65;;;116.38;;
57057;SDS011;55017;52.848;6.748;2022-10-17T05:57:11;123.60;;;118.70;;
57057;SDS011;55017;52.848;6.748;2022-10-17T05:59:37;123.45;;;118.53;;
57057;SDS011;55017;52.848;6.748;2022-10-17T06:02:02;121.70;;;116.70;;
57057;SDS011;55017;52.848;6.748;2022-10-17T06:04:28;122.22;;;117.22;;
57057;SDS011;55017;52.848;6.748;2022-10-17T06:06:54;123.80;;;118.57;;
57057;SDS011;55017;52.848;6.748;2022-10-17T06:09:20;124.85;;;119.63;;
57057;SDS011;55017;52.848;6.748;2022-10-17T06:11:46;125.50;;;120.13;;
57057;SDS011;55017;52.848;6.748;2022-10-17T06:14:12;123.82;;;118.88;;
57057;SDS011;55017;52.848;6.748;2022-10-17T06:16:38;122.25;;;117.35;;
57057;SDS011;55017;52.848;6.748;2022-10-17T06:19:03;121.20;;;116.30;;
57057;SDS011;55017;52.848;6.748;2022-10-17T06:21:29;125.88;;;120.35;;
57057;SDS011;55017;52.848;6.748;2022-10-17T06:23:58;121.53;;;116.63;;
57057;SDS011;55017;52.848;6.748;2022-10-17T06:26:23;125.00;;;119.72;;
57057;SDS011;55017;52.848;6.748;2022-10-17T06:28:49;122.15;;;117.20;;
57057;SDS011;55017;52.848;6.748;2022-10-17T06:31:15;126.38;;;121.28;;
57057;SDS011;55017;52.848;6.748;2022-10-17T06:33:41;120.53;;;115.63;;
57057;SDS011;55017;52.848;6.748;2022-10-17T06:36:07;123.68;;;118.68;;
57057;SDS011;55017;52.848;6.748;2022-10-17T06:38:35;124.90;;;119.90;;
57057;SDS011;55017;52.848;6.748;2022-10-17T06:41:09;122.78;;;117.65;;
57057;SDS011;55017;52.848;6.748;2022-10-17T06:43:42;121.50;;;116.53;;
57057;SDS011;55017;52.848;6.748;2022-10-17T06:46:12;122.90;;;117.85;;
57057;SDS011;55017;52.848;6.748;2022-10-17T06:48:39;122.45;;;117.50;;
57057;SDS011;55017;52.848;6.748;2022-10-17T06:51:05;119.93;;;115.13;;
57057;SDS011;55017;52.848;6.748;2022-10-17T06:53:33;120.93;;;116.03;;
57057;SDS011;55017;52.848;6.748;2022-10-17T06:55:59;119.13;;;114.32;;
57057;SDS011;55017;52.848;6.748;2022-10-17T06:58:31;120.07;;;114.97;;
57057;SDS011;55017;52.848;6.748;2022-10-17T07:01:03;118.93;;;114.03;;
57057;SDS011;55017;52.848;6.748;2022-10-17T07:03:33;118.82;;;114.13;;
57057;SDS011;55017;52.848;6.748;2022-10-17T07:05:59;118.90;;;114.10;;
57057;SDS011;55017;52.848;6.748;2022-10-17T07:08:25;117.70;;;112.88;;
57057;SDS011;55017;52.848;6.748;2022-10-17T07:10:51;115.95;;;111.28;;
57057;SDS011;55017;52.848;6.748;2022-10-17T07:13:17;118.45;;;113.78;;
57057;SDS011;55017;52.848;6.748;2022-10-17T07:15:43;118.57;;;113.70;;
57057;SDS011;55017;52.848;6.748;2022-10-17T07:18:10;115.20;;;110.63;;
57057;SDS011;55017;52.848;6.748;2022-10-17T07:20:35;112.70;;;108.13;;
57057;SDS011;55017;52.848;6.748;2022-10-17T07:23:01;113.07;;;108.57;;
57057;SDS011;55017;52.848;6.748;2022-10-17T07:25:27;114.45;;;109.85;;
57057;SDS011;55017;52.848;6.748;2022-10-17T07:27:53;116.70;;;112.10;;
57057;SDS011;55017;52.848;6.748;2022-10-17T07:30:19;112.45;;;108.05;;
57057;SDS011;55017;52.848;6.748;2022-10-17T07:32:45;112.10;;;107.50;;
57057;SDS011;55017;52.848;6.748;2022-10-17T07:35:11;112.63;;;108.22;;
57057;SDS011;55017;52.848;6.748;2022-10-17T07:37:37;111.32;;;107.05;;
57057;SDS011;55017;52.848;6.748;2022-10-17T07:40:03;115.25;;;110.40;;
57057;SDS011;55017;52.848;6.748;2022-10-17T07:42:30;110.03;;;105.90;;
57057;SDS011;55017;52.848;6.748;2022-10-17T07:44:57;111.65;;;107.45;;
57057;SDS011;55017;52.848;6.748;2022-10-17T07:47:22;113.20;;;108.90;;
57057;SDS011;55017;52.848;6.748;2022-10-17T07:49:48;109.75;;;105.53;;
57057;SDS011;55017;52.848;6.748;2022-10-17T07:52:14;113.50;;;108.85;;
57057;SDS011;55017;52.848;6.748;2022-10-17T07:54:41;110.60;;;106.35;;
57057;SDS011;55017;52.848;6.748;2022-10-17T07:57:06;110.20;;;105.68;;
57057;SDS011;55017;52.848;6.748;2022-10-17T07:59:33;110.40;;;105.97;;
57057;SDS011;55017;52.848;6.748;2022-10-17T08:01:59;109.03;;;104.95;;
57057;SDS011;55017;52.848;6.748;2022-10-17T08:04:25;110.40;;;106.30;;
57057;SDS011;55017;52.848;6.748;2022-10-17T08:06:51;110.75;;;106.55;;
57057;SDS011;55017;52.848;6.748;2022-10-17T08:09:17;112.85;;;108.60;;
57057;SDS011;55017;52.848;6.748;2022-10-17T08:11:43;109.88;;;105.68;;
57057;SDS011;55017;52.848;6.748;2022-10-17T08:14:09;110.88;;;106.55;;
57057;SDS011;55017;52.848;6.748;2022-10-17T08:16:35;109.03;;;104.88;;
57057;SDS011;55017;52.848;6.748;2022-10-17T08:19:01;110.50;;;106.30;;
57057;SDS011;55017;52.848;6.748;2022-10-17T08:21:27;107.53;;;103.60;;
57057;SDS011;55017;52.848;6.748;2022-10-17T08:23:53;110.93;;;106.68;;
57057;SDS011;55017;52.848;6.748;2022-10-17T08:26:18;109.50;;;105.13;;
57057;SDS011;55017;52.848;6.748;2022-10-17T08:28:44;108.70;;;104.72;;
57057;SDS011;55017;52.848;6.748;2022-10-17T08:31:11;109.70;;;105.15;;
57057;SDS011;55017;52.848;6.748;2022-10-17T08:33:38;109.82;;;105.85;;
57057;SDS011;55017;52.848;6.748;2022-10-17T08:36:05;109.45;;;105.25;;
57057;SDS011;55017;52.848;6.748;2022-10-17T08:38:31;112.07;;;107.78;;
57057;SDS011;55017;52.848;6.748;2022-10-17T08:40:59;111.78;;;107.50;;
57057;SDS011;55017;52.848;6.748;2022-10-17T08:43:32;108.70;;;104.60;;
57057;SDS011;55017;52.848;6.748;2022-10-17T08:46:10;109.75;;;105.28;;
57057;SDS011;55017;52.848;6.748;2022-10-17T08:48:37;110.25;;;105.53;;
57057;SDS011;55017;52.848;6.748;2022-10-17T08:51:19;110.45;;;106.03;;
57057;SDS011;55017;52.848;6.748;2022-10-17T08:53:56;111.82;;;107.53;;
57057;SDS011;55017;52.848;6.748;2022-10-17T08:56:37;110.97;;;106.72;;
57057;SDS011;55017;52.848;6.748;2022-10-17T08:59:11;112.05;;;107.57;;
57057;SDS011;55017;52.848;6.748;2022-10-17T09:04:41;108.75;;;104.32;;
57057;SDS011;55017;52.848;6.748;2022-10-17T09:10:14;111.07;;;106.60;;
57057;SDS011;55017;52.848;6.748;2022-10-17T09:16:04;113.20;;;108.80;;
57057;SDS011;55017;52.848;6.748;2022-10-17T09:18:51;114.97;;;110.32;;
57057;SDS011;55017;52.848;6.748;2022-10-17T09:21:41;111.68;;;107.18;;
57057;SDS011;55017;52.848;6.748;2022-10-17T09:24:12;111.20;;;106.85;;
57057;SDS011;55017;52.848;6.748;2022-10-17T09:26:43;109.93;;;105.72;;
57057;SDS011;55017;52.848;6.748;2022-10-17T09:29:16;113.07;;;108.68;;
57057;SDS011;55017;52.848;6.748;2022-10-17T09:31:48;109.65;;;105.55;;
57057;SDS011;55017;52.848;6.748;2022-10-17T09:34:18;107.55;;;103.28;;
57057;SDS011;55017;52.848;6.748;2022-10-17T09:36:44;111.47;;;106.97;;
57057;SDS011;55017;52.848;6.748;2022-10-17T09:39:14;107.95;;;103.90;;
57057;SDS011;55017;52.848;6.748;2022-10-17T09:41:52;108.43;;;104.32;;
57057;SDS011;55017;52.848;6.748;2022-10-17T09:49:33;107.22;;;103.43;;
57057;SDS011;55017;52.848;6.748;2022-10-17T09:52:01;108.80;;;104.70;;
57057;SDS011;55017;52.848;6.748;2022-10-17T09:54:46;111.70;;;107.35;;
57057;SDS011;55017;52.848;6.748;2022-10-17T09:57:14;110.30;;;106.18;;
57057;SDS011;55017;52.848;6.748;2022-10-17T09:59:43;112.63;;;108.30;;
57057;SDS011;55017;52.848;6.748;2022-10-17T10:02:29;111.85;;;107.40;;
57057;SDS011;55017;52.848;6.748;2022-10-17T10:05:04;114.63;;;110.30;;
57057;SDS011;55017;52.848;6.748;2022-10-17T10:07:40;111.60;;;107.22;;
57057;SDS011;55017;52.848;6.748;2022-10-17T10:10:21;111.38;;;106.90;;
57057;SDS011;55017;52.848;6.748;2022-10-17T10:15:37;114.80;;;110.25;;
57057;SDS011;55017;52.848;6.748;2022-10-17T10:21:09;113.28;;;108.47;;
57057;SDS011;55017;52.848;6.748;2022-10-17T10:23:43;116.07;;;111.18;;
57057;SDS011;55017;52.848;6.748;2022-10-17T10:26:33;113.93;;;109.03;;
57057;SDS011;55017;52.848;6.748;2022-10-17T10:28:59;115.85;;;111.00;;
57057;SDS011;55017;52.848;6.748;2022-10-17T10:31:30;116.25;;;110.50;;
57057;SDS011;55017;52.848;6.748;2022-10-17T10:34:10;113.65;;;109.05;;
57057;SDS011;55017;52.848;6.748;2022-10-17T10:36:48;115.18;;;110.22;;
57057;SDS011;55017;52.848;6.748;2022-10-17T10:39:41;115.60;;;110.57;;
57057;SDS011;55017;52.848;6.748;2022-10-17T10:42:19;114.78;;;110.07;;
57057;SDS011;55017;52.848;6.748;2022-10-17T10:44:45;116.10;;;110.85;;
57057;SDS011;55017;52.848;6.748;2022-10-17T11:01:34;117.35;;;111.95;;
57057;SDS011;55017;52.848;6.748;2022-10-17T11:06:56;121.43;;;116.43;;
57057;SDS011;55017;52.848;6.748;2022-10-17T11:09:45;116.60;;;111.60;;
57057;SDS011;55017;52.848;6.748;2022-10-17T11:12:26;117.18;;;111.97;;
57057;SDS011;55017;52.848;6.748;2022-10-17T11:20:03;120.10;;;114.53;;
57057;SDS011;55017;52.848;6.748;2022-10-17T11:22:46;118.25;;;112.78;;
57057;SDS011;55017;52.848;6.748;2022-10-17T11:25:16;118.70;;;113.38;;
57057;SDS011;55017;52.848;6.748;2022-10-17T11:27:52;117.63;;;112.55;;
57057;SDS011;55017;52.848;6.748;2022-10-17T11:30:17;116.78;;;111.65;;
57057;SDS011;55017;52.848;6.748;2022-10-17T11:32:44;117.65;;;112.55;;
57057;SDS011;55017;52.848;6.748;2022-10-17T11:35:28;116.32;;;111.53;;
57057;SDS011;55017;52.848;6.748;2022-10-17T11:38:20;116.78;;;111.75;;
57057;SDS011;55017;52.848;6.748;2022-10-17T11:40:54;117.85;;;112.95;;
57057;SDS011;55017;52.848;6.748;2022-10-17T11:43:33;117.78;;;112.47;;
57057;SDS011;55017;52.848;6.748;2022-10-17T11:46:16;118.00;;;112.78;;
57057;SDS011;55017;52.848;6.748;2022-10-17T11:48:55;114.95;;;110.20;;
57057;SDS011;55017;52.848;6.748;2022-10-17T11:51:29;113.72;;;109.22;;
57057;SDS011;55017;52.848;6.748;2022-10-17T11:56:37;112.47;;;107.95;;
57057;SDS011;55017;52.848;6.748;2022-10-17T12:02:07;115.80;;;111.25;;
57057;SDS011;55017;52.848;6.748;2022-10-17T12:04:58;114.18;;;109.82;;
57057;SDS011;55017;52.848;6.748;2022-10-17T12:07:45;115.47;;;110.63;;
57057;SDS011;55017;52.848;6.748;2022-10-17T12:10:36;113.68;;;108.97;;
57057;SDS011;55017;52.848;6.748;2022-10-17T12:15:54;114.07;;;109.47;;
57057;SDS011;55017;52.848;6.748;2022-10-17T12:18:22;112.95;;;108.65;;
57057;SDS011;55017;52.848;6.748;2022-10-17T12:20:59;111.95;;;107.60;;
57057;SDS011;55017;52.848;6.748;2022-10-17T12:23:29;111.97;;;107.78;;
57057;SDS011;55017;52.848;6.748;2022-10-17T12:25:59;111.70;;;107.30;;
57057;SDS011;55017;52.848;6.748;2022-10-17T12:28:49;113.68;;;109.38;;
57057;SDS011;55017;52.848;6.748;2022-10-17T12:33:50;112.10;;;107.80;;
57057;SDS011;55017;52.848;6.748;2022-10-17T12:38:51;110.03;;;105.63;;
57057;SDS011;55017;52.848;6.748;2022-10-17T12:52:20;110.30;;;106.05;;
57057;SDS011;55017;52.848;6.748;2022-10-17T13:02:23;109.15;;;105.25;;
57057;SDS011;55017;52.848;6.748;2022-10-17T13:04:56;112.10;;;108.00;;
57057;SDS011;55017;52.848;6.748;2022-10-17T13:07:32;109.10;;;105.07;;
57057;SDS011;55017;52.848;6.748;2022-10-17T13:10:00;107.57;;;103.78;;
57057;SDS011;55017;52.848;6.748;2022-10-17T13:12:29;108.85;;;104.95;;
57057;SDS011;55017;52.848;6.748;2022-10-17T13:14:57;107.35;;;103.38;;
57057;SDS011;55017;52.848;6.748;2022-10-17T13:17:25;108.38;;;104.47;;
57057;SDS011;55017;52.848;6.748;2022-10-17T13:22:25;109.63;;;105.47;;
57057;SDS011;55017;52.848;6.748;2022-10-17T13:25:04;106.88;;;102.97;;
57057;SDS011;55017;52.848;6.748;2022-10-17T13:29:59;109.18;;;105.28;;
57057;SDS011;55017;52.848;6.748;2022-10-17T13:32:33;110.50;;;106.57;;
57057;SDS011;55017;52.848;6.748;2022-10-17T13:35:04;108.53;;;104.63;;
57057;SDS011;55017;52.848;6.748;2022-10-17T13:37:33;107.38;;;103.30;;
57057;SDS011;55017;52.848;6.748;2022-10-17T13:39:59;107.82;;;103.65;;
57057;SDS011;55017;52.848;6.748;2022-10-17T13:42:26;107.25;;;103.35;;
57057;SDS011;55017;52.848;6.748;2022-10-17T13:44:59;108.07;;;104.18;;
57057;SDS011;55017;52.848;6.748;2022-10-17T13:47:31;105.97;;;102.28;;
57057;SDS011;55017;52.848;6.748;2022-10-17T13:50:01;107.35;;;103.18;;
57057;SDS011;55017;52.848;6.748;2022-10-17T13:52:29;110.38;;;105.88;;
57057;SDS011;55017;52.848;6.748;2022-10-17T13:54:54;110.35;;;106.25;;
57057;SDS011;55017;52.848;6.748;2022-10-17T13:57:32;109.13;;;105.03;;
57057;SDS011;55017;52.848;6.748;2022-10-17T13:59:58;105.07;;;101.22;;
57057;SDS011;55017;52.848;6.748;2022-10-17T14:02:27;105.20;;;101.55;;
57057;SDS011;55017;52.848;6.748;2022-10-17T14:05:02;114.57;;;109.95;;
57057;SDS011;55017;52.848;6.748;2022-10-17T14:12:54;105.03;;;101.35;;
57057;SDS011;55017;52.848;6.748;2022-10-17T14:15:21;102.50;;;98.93;;
57057;SDS011;55017;52.848;6.748;2022-10-17T14:17:58;103.72;;;100.05;;
57057;SDS011;55017;52.848;6.748;2022-10-17T14:20:29;106.60;;;102.72;;
57057;SDS011;55017;52.848;6.748;2022-10-17T14:22:55;101.57;;;98.07;;
57057;SDS011;55017;52.848;6.748;2022-10-17T14:28:20;102.50;;;98.68;;
57057;SDS011;55017;52.848;6.748;2022-10-17T14:30:47;101.75;;;98.25;;
57057;SDS011;55017;52.848;6.748;2022-10-17T14:33:18;102.97;;;99.28;;
57057;SDS011;55017;52.848;6.748;2022-10-17T14:35:48;104.63;;;100.97;;
57057;SDS011;55017;52.848;6.748;2022-10-17T14:38:15;102.38;;;98.78;;
57057;SDS011;55017;52.848;6.748;2022-10-17T14:40:47;102.50;;;99.00;;
57057;SDS011;55017;52.848;6.748;2022-10-17T14:43:16;103.28;;;99.78;;
57057;SDS011;55017;52.848;6.748;2022-10-17T14:45:45;103.47;;;99.80;;
57057;SDS011;55017;52.848;6.748;2022-10-17T14:48:12;102.28;;;98.85;;
57057;SDS011;55017;52.848;6.748;2022-10-17T14:53:37;103.72;;;100.22;;
57057;SDS011;55017;52.848;6.748;2022-10-17T14:56:04;104.25;;;100.55;;
57057;SDS011;55017;52.848;6.748;2022-10-17T14:58:49;102.75;;;99.25;;
57057;SDS011;55017;52.848;6.748;2022-10-17T15:01:16;104.18;;;100.47;;
57057;SDS011;55017;52.848;6.748;2022-10-17T15:03:41;104.25;;;100.65;;
57057;SDS011;55017;52.848;6.748;2022-10-17T15:06:18;103.78;;;100.28;;
57057;SDS011;55017;52.848;6.748;2022-10-17T15:08:50;100.63;;;97.13;;
57057;SDS011;55017;52.848;6.748;2022-10-17T15:11:16;101.20;;;97.78;;
57057;SDS011;55017;52.848;6.748;2022-10-17T15:13:41;100.47;;;97.10;;
57057;SDS011;55017;52.848;6.748;2022-10-17T15:16:14;102.93;;;99.28;;
57057;SDS011;55017;52.848;6.748;2022-10-17T15:18:46;103.85;;;100.35;;
57057;SDS011;55017;52.848;6.748;2022-10-17T15:21:12;99.85;;;96.43;;
57057;SDS011;55017;52.848;6.748;2022-10-17T15:23:40;100.93;;;97.37;;
57057;SDS011;55017;52.848;6.748;2022-10-17T15:28:42;102.85;;;99.38;;
57057;SDS011;55017;52.848;6.748;2022-10-17T15:31:12;104.72;;;100.93;;
57057;SDS011;55017;52.848;6.748;2022-10-17T15:33:39;100.30;;;96.90;;
57057;SDS011;55017;52.848;6.748;2022-10-17T15:38:52;103.90;;;100.30;;
57057;SDS011;55017;52.848;6.748;2022-10-17T15:41:20;100.15;;;96.82;;
57057;SDS011;55017;52.848;6.748;2022-10-17T15:43:46;102.28;;;98.78;;
57057;SDS011;55017;52.848;6.748;2022-10-17T15:46:14;100.60;;;97.03;;
57057;SDS011;55017;52.848;6.748;2022-10-17T15:48:46;101.47;;;98.13;;
57057;SDS011;55017;52.848;6.748;2022-10-17T15:51:12;102.50;;;98.90;;
57057;SDS011;55017;52.848;6.748;2022-10-17T15:53:38;99.97;;;96.65;;
57057;SDS011;55017;52.848;6.748;2022-10-17T15:56:04;102.25;;;98.82;;
57057;SDS011;55017;52.848;6.748;2022-10-17T15:58:33;103.28;;;99.68;;
57057;SDS011;55017;52.848;6.748;2022-10-17T16:01:04;101.88;;;98.47;;
57057;SDS011;55017;52.848;6.748;2022-10-17T16:03:30;102.50;;;99.10;;
57057;SDS011;55017;52.848;6.748;2022-10-17T16:05:56;104.10;;;100.60;;
57057;SDS011;55017;52.848;6.748;2022-10-17T16:08:22;104.70;;;100.90;;
57057;SDS011;55017;52.848;6.748;2022-10-17T16:10:47;103.65;;;100.25;;
57057;SDS011;55017;52.848;6.748;2022-10-17T16:13:17;104.07;;;100.43;;
57057;SDS011;55017;52.848;6.748;2022-10-17T16:15:45;101.15;;;97.80;;
57057;SDS011;55017;52.848;6.748;2022-10-17T16:18:11;102.68;;;99.18;;